• Join FlightAware (Why Join?)
  • Login
  • US Flag 
05:31AM EST


 

Airport Tracker/Info


-or-


 

Live Flight TrackerFlight Track Log ✈ N2600G ✈ 05-May-2012 ✈ KPDK - KDTS

Flight Track Log - Related Links

Times and Time Zones

All times are in EDT time to prevent confusion due to time zone crossing. See the N2600G flight status page for this flight to view local times or setup timezone preferences in your user account.

Time Position Orientation Groundspeed Altitude Reporting Facility
EDT Latitude Longitude Course Direction KTS MPH feet Rate Location/Type
12:35PM 33.9000 -84.3333 205° Southwest 97 112 2,900  Level Atlanta TRACON
12:39PM 33.7833 -84.4000 180° South 137 158 4,900 300 Climbing Atlanta TRACON
12:41PM 33.7000 -84.4000 180° South 139 160 4,900  Level Atlanta TRACON
12:43PM 33.6167 -84.4000 180° South 155 178 4,900  Level Atlanta TRACON
12:46PM 33.5000 -84.4000 180° South 144 166 4,900 -120 Level Atlanta TRACON
12:47PM 33.4667 -84.4000 209° Southwest 151 174 4,600 -420 Descending Atlanta TRACON
12:48PM 33.4167 -84.4333 220° Southwest 150 173 4,100 -420 Descending Atlanta TRACON
12:49PM 33.4000 -84.4500 220° Southwest 146 168 3,900 -180 Descending Atlanta TRACON
12:50PM 33.3667 -84.4833 203° Southwest 134 154 3,800  Descending Atlanta TRACON
12:51PM 33.3333 -84.5000 203° Southwest 132 152 4,000  Climbing Atlanta TRACON
12:52PM 33.3000 -84.5167 220° Southwest 139 160 3,900  Descending Atlanta TRACON
12:53PM 33.2667 -84.5500 203° Southwest 139 160 4,000  Climbing Atlanta TRACON
12:54PM 33.2333 -84.5667 220° Southwest 136 157 4,000 -180 Level Atlanta TRACON
12:55PM 33.2000 -84.6000 203° Southwest 141 162 3,700 -60 Descending Atlanta TRACON
12:56PM 33.1667 -84.6167 203° Southwest 132 152 3,900 120 Climbing Atlanta TRACON
12:57PM 33.1333 -84.6333 239° Southwest 134 154 4,000  Climbing Atlanta TRACON
12:58PM 33.1167 -84.6667 203° Southwest 135 155 4,000  Level Atlanta TRACON
12:59PM 33.0833 -84.6833 203° Southwest 139 160 4,000  Level Atlanta TRACON
01:00PM 33.0500 -84.7000 220° Southwest 135 155 4,000 -60 Level Atlanta TRACON
01:01PM 33.0167 -84.7333 203° Southwest 136 157 3,900 -60 Descending Atlanta TRACON
01:02PM 32.9833 -84.7500 203° Southwest 133 153 3,900 60 Level Atlanta TRACON
01:03PM 32.9500 -84.7667 220° Southwest 132 152 4,100  Climbing Atlanta TRACON
01:04PM 32.9167 -84.8000 203° Southwest 139 160 3,900 -120 Descending Atlanta TRACON
01:05PM 32.8833 -84.8167 203° Southwest 136 157 3,900 -60 Level Atlanta TRACON
01:06PM 32.8500 -84.8333 239° Southwest 136 157 3,800  Descending Atlanta TRACON
01:07PM 32.8333 -84.8667 203° Southwest 131 151 3,900 60 Climbing Atlanta TRACON
01:08PM 32.8000 -84.8833 203° Southwest 132 152 4,000  Climbing Atlanta TRACON
01:09PM 32.7667 -84.9000 220° Southwest 135 155 3,900 -60 Descending Atlanta TRACON
01:10PM 32.7333 -84.9333 203° Southwest 135 155 3,900  Level Atlanta TRACON
01:11PM 32.7000 -84.9500 203° Southwest 138 159 3,900  Level Atlanta TRACON
01:12PM 32.6667 -84.9667 220° Southwest 132 152 4,000  Climbing Atlanta TRACON
01:13PM 32.6333 -85.0000 203° Southwest 136 157 3,900 -60 Descending Atlanta TRACON
01:14PM 32.6000 -85.0167 203° Southwest 132 152 3,900  Level Atlanta TRACON
01:15PM 32.5667 -85.0333 203° Southwest 134 154 3,900  Level Atlanta TRACON
01:16PM 32.5333 -85.0500 220° Southwest 135 155 3,900 -60 Level Atlanta TRACON
01:17PM 32.5000 -85.0833 203° Southwest 136 157 3,800 -60 Descending Atlanta TRACON
01:18PM 32.4667 -85.1000 203° Southwest 133 153 3,800  Level Atlanta TRACON
01:19PM 32.4333 -85.1167 220° Southwest 133 153 3,900  Climbing Atlanta TRACON
01:20PM 32.4000 -85.1500 203° Southwest 137 158 3,900  Level Atlanta TRACON
01:21PM 32.3667 -85.1667 220° Southwest 139 160 3,900 -60 Level Atlanta TRACON
01:22PM 32.3500 -85.1833 220° Southwest 135 155 3,800  Descending Atlanta TRACON
01:23PM 32.3167 -85.2167 203° Southwest 133 153 3,900 60 Climbing Atlanta TRACON
01:24PM 32.2833 -85.2333 203° Southwest 136 157 4,000 60 Climbing Atlanta TRACON
01:25PM 32.2500 -85.2500 220° Southwest 133 153 4,100  Climbing Atlanta TRACON
01:26PM 32.2167 -85.2833 203° Southwest 139 160 4,000 -60 Descending Atlanta TRACON
01:27PM 32.1833 -85.3000 203° Southwest 138 159 4,000  Level Atlanta TRACON
01:27PM 32.1500 -85.3167 213° Southwest 136 157 4,000  Level Atlanta TRACON
01:29PM 32.1008 -85.3547 211° Southwest 136 157 4,000 -60 Level Jacksonville Center
01:30PM 32.0669 -85.3783 207° Southwest 138 159 3,900  Descending Jacksonville Center
01:31PM 32.0311 -85.3994 212° Southwest 139 160 4,000  Climbing Jacksonville Center
01:32PM 31.9992 -85.4231 209° Southwest 137 158 3,900 -60 Descending Jacksonville Center
01:33PM 31.9675 -85.4442 209° Southwest 135 155 3,900  Level Jacksonville Center
01:34PM 31.9317 -85.4678 209° Southwest 136 157 3,900  Level Jacksonville Center
01:35PM 31.8997 -85.4889 207° Southwest 134 154 4,000  Climbing Jacksonville Center
01:36PM 31.8725 -85.5053 211° Southwest 132 152 4,000 -60 Level Jacksonville Center
01:37PM 31.8364 -85.5311 207° Southwest 136 157 3,900 -60 Descending Jacksonville Center
01:38PM 31.8047 -85.5497 208° Southwest 135 155 3,900  Level Jacksonville Center
01:39PM 31.7708 -85.5708 206° Southwest 135 155 4,000  Climbing Jacksonville Center
01:40PM 31.7350 -85.5917 200° South 133 153 3,900 -120 Descending Jacksonville Center
01:41PM 31.6969 -85.6078 210° Southwest 135 155 3,800  Descending Jacksonville Center
01:42PM 31.6653 -85.6289 192° South 132 152 3,900  Climbing Jacksonville Center
01:43PM 31.6294 -85.6375 191° South 130 150 3,900  Level Jacksonville Center
01:44PM 31.5917 -85.6461 189° South 135 155 3,900  Level Jacksonville Center
01:45PM 31.5561 -85.6525 189° South 134 154 4,000  Climbing Jacksonville Center
01:46PM 31.5119 -85.6608 188° South 136 157 3,900  Descending Jacksonville Center
01:47PM 31.4744 -85.6669 201° Southwest 138 159 4,000  Climbing Jacksonville Center
01:48PM 31.4386 -85.6831 210° Southwest 143 165 3,900 -60 Descending Jacksonville Center
01:49PM 31.4047 -85.7064 213° Southwest 138 159 3,900  Level Jacksonville Center
01:50PM 31.3683 -85.7344 215° Southwest 136 157 4,000  Climbing Jacksonville Center
01:51PM 31.3367 -85.7603 212° Southwest 136 157 4,000 -60 Level Jacksonville Center
01:52PM 31.3047 -85.7836 215° Southwest 138 159 3,900  Descending Jacksonville Center
01:53PM 31.2792 -85.8047 213° Southwest 134 154 4,000  Climbing Jacksonville Center
01:54PM 31.2453 -85.8303 215° Southwest 133 153 4,000 -60 Level Jacksonville Center
01:55PM 31.2133 -85.8561 212° Southwest 137 158 3,900 -120 Descending Jacksonville Center
02:03PM 30.9824 -86.0257 208° Southwest  Level FlightAware Approximate
02:04PM 30.9511 -86.0448 212° Southwest  Level FlightAware Approximate
02:05PM 30.9211 -86.0670 212° Southwest  Level FlightAware Approximate
02:06PM 30.8912 -86.0893 212° Southwest  Level FlightAware Approximate
02:07PM 30.8612 -86.1115 212° Southwest  Level FlightAware Approximate
02:08PM 30.8312 -86.1337 212° Southwest  Level FlightAware Approximate
02:09PM 30.8013 -86.1558 212° Southwest  Level FlightAware Approximate
02:10PM 30.7713 -86.1780 212° Southwest  Level FlightAware Approximate
02:11PM 30.7413 -86.2001 211° Southwest  Level FlightAware Approximate
02:12PM 30.7108 -86.2211 213° Southwest  Level FlightAware Approximate
02:13PM 30.6809 -86.2435 213° Southwest  Level FlightAware Approximate
02:14PM 30.6511 -86.2659 213° Southwest  Level FlightAware Approximate
02:15PM 30.6213 -86.2883 213° Southwest  Level FlightAware Approximate
02:16PM 30.5914 -86.3106 215° Southwest  Level FlightAware Approximate
02:17PM 30.5622 -86.3340 216° Southwest  Level FlightAware Approximate
02:18PM 30.5335 -86.3583 215° Southwest  Level Estimated
02:19PM 30.4888 -86.3941 217° Southwest  Level FlightAware Approximate
02:20PM 30.4604 -86.4188 213° Southwest  Level Estimated
02:21PM 30.4297 -86.4424 220° Southwest  Level FlightAware Approximate
02:22PM 30.4026 -86.4690 220° Southwest  Level Estimated
02:23PM 30.3755 -86.4955 220° Southwest  Level Estimated